createdAt,value
2023-04-29T00:00:49.849Z,4.60
2023-04-29T00:03:17.971Z,4.50
2023-04-29T00:05:45.199Z,4.40
2023-04-29T00:08:12.247Z,4.40
2023-04-29T00:10:39.758Z,4.40
2023-04-29T00:13:07.594Z,4.30
2023-04-29T00:15:34.634Z,4.30
2023-04-29T00:18:01.762Z,4.30
2023-04-29T00:20:28.736Z,4.10
2023-04-29T00:22:55.576Z,4.10
2023-04-29T00:25:22.488Z,4.00
2023-04-29T00:27:49.349Z,3.90
2023-04-29T00:30:16.250Z,3.80
2023-04-29T00:32:44.815Z,3.70
2023-04-29T00:35:11.715Z,3.70
2023-04-29T00:37:39.020Z,3.70
2023-04-29T00:40:07.368Z,3.70
2023-04-29T00:42:34.320Z,3.70
2023-04-29T00:45:01.212Z,3.70
2023-04-29T00:47:28.035Z,3.50
2023-04-29T00:49:55.053Z,3.50
2023-04-29T00:52:23.111Z,3.50
2023-04-29T00:54:50.936Z,3.50
2023-04-29T00:57:19.230Z,3.40
2023-04-29T00:59:46.560Z,3.40
2023-04-29T01:02:14.328Z,3.30
2023-04-29T01:04:41.261Z,3.20
2023-04-29T01:07:41.930Z,3.20
2023-04-29T01:10:44.088Z,3.10
2023-04-29T01:13:35.349Z,3.00
2023-04-29T01:16:10.716Z,3.00
2023-04-29T01:18:41.915Z,3.00
2023-04-29T01:21:09.190Z,3.00
2023-04-29T01:23:36.147Z,2.90
2023-04-29T01:26:03.094Z,2.80
2023-04-29T01:28:57.793Z,2.70
2023-04-29T01:31:31.271Z,2.70
2023-04-29T01:34:16.336Z,2.70
2023-04-29T01:37:05.042Z,2.70
2023-04-29T01:40:12.452Z,2.80
2023-04-29T01:42:40.204Z,2.80
2023-04-29T01:45:10.672Z,2.90
2023-04-29T01:47:39.291Z,2.90
2023-04-29T01:50:06.794Z,2.90
2023-04-29T01:52:33.692Z,2.90
2023-04-29T01:55:00.621Z,2.90
2023-04-29T01:57:27.452Z,2.90
2023-04-29T01:59:54.427Z,2.80
2023-04-29T02:02:23.656Z,2.80
2023-04-29T02:04:50.768Z,2.70
2023-04-29T02:07:17.890Z,2.70
2023-04-29T02:09:44.834Z,2.70
2023-04-29T02:12:11.698Z,2.70
2023-04-29T02:14:38.768Z,2.70
2023-04-29T02:17:05.768Z,2.70
2023-04-29T02:19:32.586Z,2.70
2023-04-29T02:21:59.503Z,2.70
2023-04-29T02:24:26.471Z,2.70
2023-04-29T02:26:53.561Z,2.70
2023-04-29T02:29:20.659Z,2.70
2023-04-29T02:31:47.607Z,2.70
2023-04-29T02:34:14.553Z,2.70
2023-04-29T02:36:41.426Z,2.60
2023-04-29T02:39:08.264Z,2.60
2023-04-29T02:41:35.153Z,2.60
2023-04-29T02:44:02.012Z,2.60
2023-04-29T02:46:29.073Z,2.60
2023-04-29T02:48:56.151Z,2.60
2023-04-29T02:51:23.002Z,2.70
2023-04-29T02:53:49.877Z,2.60
2023-04-29T02:56:16.762Z,2.60
2023-04-29T02:58:43.643Z,2.60
2023-04-29T03:01:10.944Z,2.60
2023-04-29T03:03:38.119Z,2.60
2023-04-29T03:06:05.059Z,2.70
2023-04-29T03:08:31.968Z,2.80
2023-04-29T03:10:58.824Z,2.80
2023-04-29T03:13:25.836Z,2.60
2023-04-29T03:15:52.737Z,2.60
2023-04-29T03:18:19.701Z,2.60
2023-04-29T03:20:46.569Z,2.50
2023-04-29T03:23:13.485Z,2.50
2023-04-29T03:25:40.832Z,2.50
2023-04-29T03:28:07.976Z,2.50
2023-04-29T03:30:35.268Z,2.50
2023-04-29T03:33:02.256Z,2.50
2023-04-29T03:35:29.163Z,2.60
2023-04-29T03:37:56.006Z,2.70
2023-04-29T03:40:22.861Z,2.70
2023-04-29T03:42:49.787Z,2.80
2023-04-29T03:45:16.750Z,2.90
2023-04-29T03:47:43.774Z,2.90
2023-04-29T03:50:10.863Z,3.00
2023-04-29T03:52:37.960Z,2.90
2023-04-29T03:55:05.141Z,3.00
2023-04-29T03:57:32.022Z,3.10
2023-04-29T03:59:58.893Z,3.20
2023-04-29T04:02:26.041Z,3.20
2023-04-29T04:04:55.318Z,3.30
2023-04-29T04:07:22.284Z,3.40
2023-04-29T04:09:49.391Z,3.50
2023-04-29T04:12:16.259Z,3.60
2023-04-29T04:14:43.175Z,3.60
2023-04-29T04:17:10.421Z,3.60
2023-04-29T04:19:37.292Z,3.70
2023-04-29T04:22:04.880Z,3.70
2023-04-29T04:24:31.939Z,3.80
2023-04-29T04:26:58.807Z,3.80
2023-04-29T04:29:25.803Z,3.90
2023-04-29T04:31:52.745Z,4.00
2023-04-29T04:34:20.177Z,4.00
2023-04-29T04:36:47.167Z,4.10
2023-04-29T04:39:14.039Z,4.10
2023-04-29T04:41:40.880Z,4.20
2023-04-29T04:44:07.859Z,4.30
2023-04-29T04:46:35.189Z,4.40
2023-04-29T04:49:02.087Z,4.50
2023-04-29T04:51:29.458Z,4.60
2023-04-29T04:53:56.408Z,4.70
2023-04-29T04:56:23.586Z,4.80
2023-04-29T04:58:50.622Z,5.00
2023-04-29T05:01:17.607Z,5.10
2023-04-29T05:03:44.692Z,5.20
2023-04-29T05:06:11.704Z,5.30
2023-04-29T05:08:38.644Z,5.40
2023-04-29T05:11:05.692Z,5.60
2023-04-29T05:13:34.178Z,5.70
2023-04-29T05:16:06.333Z,5.70
2023-04-29T05:18:33.562Z,5.90
2023-04-29T05:21:00.579Z,6.00
2023-04-29T05:23:28.048Z,6.10
2023-04-29T05:25:55.210Z,6.20
2023-04-29T05:28:22.141Z,6.20
2023-04-29T05:30:52.066Z,6.30
2023-04-29T05:33:19.124Z,6.40
2023-04-29T05:35:46.157Z,6.50
2023-04-29T05:38:13.024Z,6.50
2023-04-29T05:40:40.546Z,6.70
2023-04-29T05:43:07.430Z,6.80
2023-04-29T05:45:34.365Z,6.90
2023-04-29T05:48:01.293Z,7.00
2023-04-29T05:50:28.206Z,7.10
2023-04-29T05:52:56.666Z,7.20
2023-04-29T05:55:24.056Z,7.30
2023-04-29T05:57:50.926Z,7.40
2023-04-29T06:00:17.790Z,7.50
2023-04-29T06:02:57.679Z,7.60
2023-04-29T06:05:27.416Z,7.70
2023-04-29T06:07:54.825Z,7.70
2023-04-29T06:10:21.687Z,7.80
2023-04-29T06:12:51.554Z,7.90
2023-04-29T06:15:18.441Z,7.90
2023-04-29T06:17:45.388Z,8.00
2023-04-29T06:20:12.823Z,8.10
2023-04-29T06:22:39.797Z,8.20
2023-04-29T06:25:07.307Z,8.30
2023-04-29T06:27:34.173Z,8.40
2023-04-29T06:30:01.163Z,8.50
2023-04-29T06:32:28.048Z,8.50
2023-04-29T06:34:54.968Z,8.60
2023-04-29T06:37:21.796Z,8.60
2023-04-29T06:39:48.756Z,8.60
2023-04-29T06:42:15.636Z,8.70
2023-04-29T06:44:42.767Z,8.70
2023-04-29T06:47:09.886Z,8.70
2023-04-29T06:49:36.778Z,8.80
2023-04-29T06:52:03.824Z,8.80
2023-04-29T06:54:30.749Z,8.80
2023-04-29T06:56:58.416Z,8.80
2023-04-29T06:59:25.359Z,8.80
2023-04-29T07:01:52.481Z,8.90
2023-04-29T07:04:19.605Z,9.00
2023-04-29T07:06:47.429Z,9.00
2023-04-29T07:09:14.817Z,9.10
2023-04-29T07:11:42.147Z,9.10
2023-04-29T07:14:09.170Z,9.10
2023-04-29T07:16:36.172Z,9.10
2023-04-29T07:19:03.306Z,9.20
2023-04-29T07:21:31.385Z,9.20
2023-04-29T07:24:01.162Z,9.30
2023-04-29T07:26:28.221Z,9.40
2023-04-29T07:28:55.137Z,9.40
2023-04-29T07:31:22.577Z,9.50
2023-04-29T07:33:49.586Z,9.50
2023-04-29T07:36:16.510Z,9.60
2023-04-29T07:38:43.375Z,9.60
2023-04-29T07:41:10.590Z,9.60
2023-04-29T07:43:37.577Z,9.60
2023-04-29T07:46:04.952Z,9.70
2023-04-29T07:48:31.849Z,9.70
2023-04-29T07:50:58.771Z,9.70
2023-04-29T07:53:25.934Z,9.70
2023-04-29T07:55:52.805Z,9.70
2023-04-29T07:58:19.688Z,9.70
2023-04-29T08:00:47.393Z,9.70
2023-04-29T08:03:14.730Z,9.80
2023-04-29T08:05:42.879Z,9.90
2023-04-29T08:08:09.786Z,9.90
2023-04-29T08:10:41.008Z,10.00
2023-04-29T08:13:08.395Z,10.00
2023-04-29T08:15:35.506Z,9.90
2023-04-29T08:18:02.364Z,9.90
2023-04-29T08:20:29.267Z,9.90
2023-04-29T08:22:58.290Z,9.80
2023-04-29T08:25:27.283Z,9.80
2023-04-29T08:27:54.173Z,9.80
2023-04-29T08:30:21.268Z,9.90
2023-04-29T08:32:48.826Z,9.90
2023-04-29T08:35:15.844Z,9.90
2023-04-29T08:37:43.177Z,9.70
2023-04-29T08:40:10.433Z,9.80
2023-04-29T08:42:38.061Z,9.70
2023-04-29T08:45:06.274Z,9.80
2023-04-29T08:47:34.326Z,9.80
2023-04-29T08:50:05.731Z,9.80
2023-04-29T08:52:33.360Z,9.80
2023-04-29T08:55:02.734Z,9.90
2023-04-29T08:57:39.577Z,10.00
2023-04-29T09:00:10.442Z,10.10
2023-04-29T09:02:52.146Z,10.20
2023-04-29T09:05:19.808Z,10.30
2023-04-29T09:07:47.694Z,10.40
2023-04-29T09:10:16.175Z,10.30
2023-04-29T09:12:43.048Z,10.40
2023-04-29T09:15:10.682Z,10.50
2023-04-29T09:17:42.262Z,10.50
2023-04-29T09:20:21.434Z,10.50
2023-04-29T09:22:53.484Z,10.60
2023-04-29T09:25:21.119Z,10.60
2023-04-29T09:27:48.041Z,10.70
2023-04-29T09:30:16.773Z,10.80
2023-04-29T09:32:48.103Z,10.80
2023-04-29T09:35:25.968Z,10.90
2023-04-29T09:37:56.588Z,10.90
2023-04-29T09:40:43.428Z,10.90
2023-04-29T09:43:18.817Z,11.00
2023-04-29T09:45:48.225Z,11.10
2023-04-29T09:48:16.319Z,11.10
2023-04-29T09:50:45.096Z,11.10
2023-04-29T09:53:27.570Z,11.20
2023-04-29T09:55:54.433Z,11.10
2023-04-29T09:58:38.327Z,11.10
2023-04-29T10:01:06.369Z,11.10
2023-04-29T10:03:36.444Z,11.20
2023-04-29T10:06:05.790Z,11.10
2023-04-29T10:08:33.884Z,11.20
2023-04-29T10:11:06.054Z,11.00
2023-04-29T10:13:35.639Z,11.00
2023-04-29T10:16:21.368Z,11.00
2023-04-29T10:18:56.550Z,10.80
2023-04-29T10:21:32.408Z,10.80
2023-04-29T10:24:02.147Z,10.90
2023-04-29T10:26:30.083Z,10.90
2023-04-29T10:28:59.308Z,10.80
2023-04-29T10:31:27.861Z,10.80
2023-04-29T10:33:58.737Z,10.80
2023-04-29T10:36:28.602Z,10.90
2023-04-29T10:38:59.452Z,10.80
2023-04-29T10:41:35.686Z,10.80
2023-04-29T10:44:04.732Z,10.90
2023-04-29T10:46:31.744Z,10.90
2023-04-29T10:49:03.638Z,10.90
2023-04-29T10:51:36.180Z,10.90
2023-04-29T10:54:08.928Z,10.80
2023-04-29T10:56:50.234Z,10.70
2023-04-29T10:59:37.324Z,10.60
2023-04-29T11:02:04.264Z,10.40
2023-04-29T11:04:32.476Z,10.30
2023-04-29T11:07:01.193Z,10.20
2023-04-29T11:09:30.302Z,10.20
2023-04-29T11:12:05.572Z,10.20
2023-04-29T11:14:43.344Z,10.10
2023-04-29T11:17:13.491Z,10.10
2023-04-29T11:19:51.363Z,10.10
2023-04-29T11:22:18.375Z,9.80
2023-04-29T11:25:01.568Z,9.80
2023-04-29T11:27:40.348Z,9.80
2023-04-29T11:30:08.184Z,9.70
2023-04-29T11:32:37.738Z,9.50
2023-04-29T11:35:13.091Z,9.40
2023-04-29T11:37:41.413Z,9.30
2023-04-29T11:40:09.344Z,9.30
2023-04-29T11:42:40.998Z,9.30
2023-04-29T11:45:08.435Z,9.20
2023-04-29T11:47:35.402Z,9.20
2023-04-29T11:50:08.759Z,9.20
2023-04-29T11:52:37.346Z,9.20
2023-04-29T11:55:05.761Z,9.20
2023-04-29T11:57:32.873Z,9.20
2023-04-29T11:59:59.919Z,9.20
2023-04-29T12:02:33.946Z,9.20
2023-04-29T12:05:06.124Z,9.20
2023-04-29T12:07:33.147Z,9.30
2023-04-29T12:10:00.431Z,9.30
2023-04-29T12:12:28.497Z,9.20
2023-04-29T12:14:56.059Z,9.10
2023-04-29T12:17:24.568Z,9.10
2023-04-29T12:19:51.662Z,9.10
2023-04-29T12:22:20.337Z,9.00
2023-04-29T12:24:47.668Z,9.00
2023-04-29T12:27:14.539Z,9.10
2023-04-29T12:29:41.438Z,9.10
2023-04-29T12:32:12.575Z,9.10
2023-04-29T12:34:40.163Z,9.10
2023-04-29T12:37:07.027Z,9.00
2023-04-29T12:39:34.840Z,9.00
2023-04-29T12:42:03.065Z,9.00
2023-04-29T12:44:40.809Z,9.00
2023-04-29T12:47:11.930Z,9.10
2023-04-29T12:49:42.132Z,9.00
2023-04-29T12:52:10.525Z,9.00
2023-04-29T12:54:41.013Z,9.10
2023-04-29T12:57:08.519Z,9.10
2023-04-29T12:59:35.996Z,9.00
2023-04-29T13:02:03.006Z,8.90
2023-04-29T13:04:30.116Z,9.00
2023-04-29T13:07:00.765Z,8.90
2023-04-29T13:09:27.992Z,8.90
2023-04-29T13:11:54.956Z,9.00
2023-04-29T13:14:22.396Z,9.00
2023-04-29T13:16:49.480Z,9.00
2023-04-29T13:19:32.168Z,9.10
2023-04-29T13:22:03.315Z,9.20
2023-04-29T13:24:30.363Z,9.20
2023-04-29T13:26:58.323Z,9.30
2023-04-29T13:29:26.764Z,9.40
2023-04-29T13:31:53.799Z,9.50
2023-04-29T13:34:21.438Z,9.60
2023-04-29T13:36:48.536Z,9.80
2023-04-29T13:39:15.487Z,9.90
2023-04-29T13:41:45.931Z,10.00
2023-04-29T13:46:44.274Z,10.20
2023-04-29T13:49:35.278Z,10.30
2023-04-29T13:54:56.988Z,10.50
2023-04-29T13:58:03.034Z,10.60
2023-04-29T14:00:14.562Z,10.60
2023-04-29T14:05:25.821Z,10.80
2023-04-29T14:07:52.853Z,10.80
2023-04-29T14:10:19.816Z,10.80
2023-04-29T14:12:47.319Z,10.70
2023-04-29T14:15:14.991Z,10.60
2023-04-29T14:17:42.018Z,10.50
2023-04-29T14:20:09.359Z,10.40
2023-04-29T14:22:36.332Z,10.40
2023-04-29T14:25:03.235Z,10.40
2023-04-29T14:27:30.107Z,10.40
2023-04-29T14:29:57.024Z,10.50
2023-04-29T14:32:24.039Z,10.30
2023-04-29T14:34:51.192Z,10.10
2023-04-29T14:37:18.155Z,10.00
2023-04-29T14:39:45.019Z,10.00
2023-04-29T14:42:12.967Z,9.90
2023-04-29T14:44:39.863Z,9.90
2023-04-29T14:47:06.973Z,9.70
2023-04-29T14:49:33.864Z,9.60
2023-04-29T14:52:00.784Z,9.50
2023-04-29T14:54:27.962Z,9.20
2023-04-29T14:56:54.817Z,9.00
2023-04-29T14:59:21.788Z,8.80
2023-04-29T15:01:48.904Z,8.80
2023-04-29T15:04:16.224Z,8.60
2023-04-29T15:06:43.503Z,8.50
2023-04-29T15:09:10.453Z,8.50
2023-04-29T15:11:37.346Z,8.70
2023-04-29T15:14:04.310Z,8.80
2023-04-29T15:16:31.777Z,9.00
2023-04-29T15:18:59.308Z,9.00
2023-04-29T15:21:26.936Z,9.00
2023-04-29T15:23:53.996Z,9.00
2023-04-29T15:26:21.845Z,9.00
2023-04-29T15:28:48.791Z,9.10
2023-04-29T15:31:15.806Z,9.10
2023-04-29T15:33:42.755Z,9.20
2023-04-29T15:36:09.650Z,9.20
2023-04-29T15:38:36.615Z,9.20
2023-04-29T15:41:04.131Z,9.20
2023-04-29T15:43:32.746Z,9.30
2023-04-29T15:46:00.157Z,9.30
2023-04-29T15:48:27.360Z,9.30
2023-04-29T15:50:54.199Z,9.20
2023-04-29T15:53:21.197Z,9.10
2023-04-29T15:55:48.113Z,9.00
2023-04-29T15:58:14.999Z,8.90
2023-04-29T16:00:42.030Z,8.80
2023-04-29T16:03:09.062Z,8.70
2023-04-29T16:05:37.099Z,8.70
2023-04-29T16:08:04.387Z,8.70
2023-04-29T16:10:31.407Z,8.80
2023-04-29T16:12:58.503Z,8.90
2023-04-29T16:15:25.426Z,8.90
2023-04-29T16:17:52.638Z,9.00
2023-04-29T16:20:20.670Z,9.00
2023-04-29T16:22:47.539Z,9.10
2023-04-29T16:25:14.500Z,9.10
2023-04-29T16:27:41.586Z,9.10
2023-04-29T16:30:09.222Z,9.10
2023-04-29T16:32:36.459Z,9.20
2023-04-29T16:35:03.505Z,9.20
2023-04-29T16:37:30.589Z,9.20
2023-04-29T16:39:58.286Z,9.20
2023-04-29T16:42:25.137Z,9.20
2023-04-29T16:44:52.140Z,9.40
2023-04-29T16:47:20.472Z,9.40
2023-04-29T16:49:47.489Z,9.50
2023-04-29T16:52:14.553Z,9.50
2023-04-29T16:54:41.773Z,9.50
2023-04-29T16:57:08.658Z,9.50
2023-04-29T16:59:35.632Z,9.50
2023-04-29T17:02:03.063Z,9.40
2023-04-29T17:04:31.448Z,9.40
2023-04-29T17:07:01.427Z,9.40
2023-04-29T17:09:28.430Z,9.40
2023-04-29T17:11:55.366Z,9.40
2023-04-29T17:14:22.502Z,9.40
2023-04-29T17:16:49.478Z,9.30
2023-04-29T17:19:16.794Z,9.30
2023-04-29T17:21:43.655Z,9.40
2023-04-29T17:24:10.490Z,9.50
2023-04-29T17:26:37.604Z,9.40
2023-04-29T17:29:04.515Z,9.20
2023-04-29T17:31:45.239Z,8.90
2023-04-29T17:34:18.857Z,8.60
2023-04-29T17:36:46.758Z,8.40
2023-04-29T17:39:14.050Z,8.30
2023-04-29T17:41:41.326Z,8.10
2023-04-29T17:44:08.969Z,8.00
2023-04-29T17:46:36.802Z,7.90
2023-04-29T17:49:04.465Z,7.70
2023-04-29T17:51:34.807Z,7.70
2023-04-29T17:54:04.815Z,7.60
2023-04-29T17:56:35.102Z,7.60
2023-04-29T17:59:05.195Z,7.60
2023-04-29T18:01:35.760Z,7.70
2023-04-29T18:04:02.887Z,7.70
2023-04-29T18:06:30.494Z,7.70
2023-04-29T18:08:57.540Z,7.70
2023-04-29T18:11:25.213Z,7.70
2023-04-29T18:13:53.471Z,7.70
2023-04-29T18:16:20.439Z,7.70
2023-04-29T18:18:47.329Z,7.70
2023-04-29T18:21:20.770Z,7.60
2023-04-29T18:23:47.850Z,7.60
2023-04-29T18:26:15.351Z,7.50
2023-04-29T18:28:42.258Z,7.60
2023-04-29T18:31:09.562Z,7.60
2023-04-29T18:33:37.044Z,7.60
2023-04-29T18:36:04.497Z,7.50
2023-04-29T18:38:31.465Z,7.50
2023-04-29T18:40:58.401Z,7.40
2023-04-29T18:43:28.395Z,7.40
2023-04-29T18:45:57.141Z,7.30
2023-04-29T18:48:24.383Z,7.20
2023-04-29T18:50:54.980Z,7.10
2023-04-29T18:53:21.910Z,7.20
2023-04-29T18:55:48.905Z,7.10
2023-04-29T18:58:16.489Z,7.10
2023-04-29T19:00:43.492Z,7.00
2023-04-29T19:03:11.068Z,7.00
2023-04-29T19:05:37.932Z,7.00
2023-04-29T19:08:05.022Z,6.80
2023-04-29T19:10:31.924Z,6.70
2023-04-29T19:12:58.808Z,6.80
2023-04-29T19:15:28.049Z,6.70
2023-04-29T19:17:55.325Z,6.70
2023-04-29T19:20:22.310Z,6.60
2023-04-29T19:22:49.274Z,6.70
2023-04-29T19:25:16.239Z,6.70
2023-04-29T19:27:48.888Z,6.60
2023-04-29T19:30:16.612Z,6.60
2023-04-29T19:32:46.146Z,6.60
2023-04-29T19:35:13.336Z,6.60
2023-04-29T19:37:40.930Z,6.50
2023-04-29T19:40:10.736Z,6.40
2023-04-29T19:42:38.864Z,6.30
2023-04-29T19:45:07.842Z,6.20
2023-04-29T19:47:35.125Z,6.10
2023-04-29T19:50:02.730Z,6.10
2023-04-29T19:52:30.050Z,6.10
2023-04-29T19:54:57.221Z,6.00
2023-04-29T19:57:24.141Z,6.00
2023-04-29T19:59:51.119Z,5.90
2023-04-29T20:02:18.250Z,5.90
2023-04-29T20:04:45.207Z,5.90
2023-04-29T20:07:12.099Z,5.80
2023-04-29T20:09:39.108Z,5.70
2023-04-29T20:12:06.964Z,5.60
2023-04-29T20:14:34.341Z,5.60
2023-04-29T20:17:01.554Z,5.50
2023-04-29T20:19:28.739Z,5.60
2023-04-29T20:21:55.605Z,5.50
2023-04-29T20:24:22.640Z,5.50
2023-04-29T20:26:49.466Z,5.40
2023-04-29T20:29:16.401Z,5.50
2023-04-29T20:31:44.117Z,5.60
2023-04-29T20:34:11.227Z,5.60
2023-04-29T20:36:39.595Z,5.50
2023-04-29T20:39:07.003Z,5.50
2023-04-29T20:41:33.871Z,5.50
2023-04-29T20:44:00.821Z,5.50
2023-04-29T20:46:27.773Z,5.50
2023-04-29T20:48:54.648Z,5.40
2023-04-29T20:51:21.554Z,5.40
2023-04-29T20:53:48.834Z,5.30
2023-04-29T20:56:16.262Z,5.20
2023-04-29T20:58:43.116Z,5.20
2023-04-29T21:01:10.085Z,5.30
2023-04-29T21:03:37.019Z,5.30
2023-04-29T21:06:04.080Z,5.20
2023-04-29T21:08:31.064Z,5.20
2023-04-29T21:10:58.022Z,5.20
2023-04-29T21:13:24.955Z,5.10
2023-04-29T21:15:52.121Z,5.00
2023-04-29T21:18:19.060Z,5.00
2023-04-29T21:20:46.322Z,5.00
2023-04-29T21:23:13.238Z,5.00
2023-04-29T21:25:40.108Z,5.00
2023-04-29T21:28:06.978Z,5.00
2023-04-29T21:30:34.068Z,4.90
2023-04-29T21:33:01.143Z,4.90
2023-04-29T21:35:28.069Z,4.80
2023-04-29T21:37:55.257Z,4.90
2023-04-29T21:40:22.828Z,4.80
2023-04-29T21:42:51.141Z,4.70
2023-04-29T21:45:18.218Z,4.70
2023-04-29T21:47:45.410Z,4.70
2023-04-29T21:50:12.457Z,4.70
2023-04-29T21:52:39.442Z,4.60
2023-04-29T21:55:06.874Z,4.70
2023-04-29T21:57:43.486Z,4.60
2023-04-29T22:00:28.649Z,4.70
2023-04-29T22:02:55.756Z,4.70
2023-04-29T22:05:22.773Z,4.70
2023-04-29T22:07:49.676Z,4.70
2023-04-29T22:10:16.680Z,4.70
2023-04-29T22:12:43.589Z,4.60
2023-04-29T22:15:24.576Z,4.60
2023-04-29T22:17:54.884Z,4.70
2023-04-29T22:20:21.829Z,4.70
2023-04-29T22:22:48.902Z,4.60
2023-04-29T22:25:15.892Z,4.60
2023-04-29T22:27:42.737Z,4.50
2023-04-29T22:30:09.957Z,4.50
2023-04-29T22:32:36.842Z,4.50
2023-04-29T22:35:04.359Z,4.50
2023-04-29T22:37:31.336Z,4.40
2023-04-29T22:39:58.262Z,4.50
2023-04-29T22:42:25.119Z,4.40
2023-04-29T22:44:51.961Z,4.40
2023-04-29T22:47:18.802Z,4.40
2023-04-29T22:49:46.447Z,4.40
2023-04-29T22:52:13.422Z,4.40
2023-04-29T22:54:40.334Z,4.30
2023-04-29T22:57:07.507Z,4.30
2023-04-29T22:59:34.447Z,4.20
2023-04-29T23:02:01.466Z,4.20
2023-04-29T23:04:28.497Z,4.10
2023-04-29T23:06:55.526Z,4.00
2023-04-29T23:09:22.465Z,4.00
2023-04-29T23:11:49.295Z,4.00
2023-04-29T23:14:16.246Z,3.90
2023-04-29T23:16:43.089Z,3.90
2023-04-29T23:19:09.971Z,3.80
2023-04-29T23:21:36.896Z,3.80
2023-04-29T23:24:04.064Z,3.90
2023-04-29T23:26:30.909Z,3.90
2023-04-29T23:28:57.766Z,3.90
2023-04-29T23:31:24.675Z,3.80
2023-04-29T23:33:51.536Z,3.80
2023-04-29T23:36:18.395Z,3.70
2023-04-29T23:38:45.405Z,3.70
2023-04-29T23:41:12.218Z,3.70
2023-04-29T23:43:39.710Z,3.60
2023-04-29T23:46:06.740Z,3.60
2023-04-29T23:48:33.692Z,3.50
2023-04-29T23:51:00.586Z,3.40
2023-04-29T23:53:27.468Z,3.40
2023-04-29T23:55:54.305Z,3.40
2023-04-29T23:58:21.191Z,3.40
